sensor_id;sensor_type;location;lat;lon;timestamp;temperature;humidity
31677;DHT22;18385;51.572;6.578;2023-04-24T00:00:20;14.50;62.90
31677;DHT22;18385;51.572;6.578;2023-04-24T00:02:46;14.50;62.90
31677;DHT22;18385;51.572;6.578;2023-04-24T00:05:14;14.50;62.90
31677;DHT22;18385;51.572;6.578;2023-04-24T00:07:41;14.50;62.80
31677;DHT22;18385;51.572;6.578;2023-04-24T00:10:07;14.50;62.80
31677;DHT22;18385;51.572;6.578;2023-04-24T00:12:33;14.50;62.80
31677;DHT22;18385;51.572;6.578;2023-04-24T00:14:59;14.50;62.80
31677;DHT22;18385;51.572;6.578;2023-04-24T00:17:25;14.50;62.80
31677;DHT22;18385;51.572;6.578;2023-04-24T00:19:51;14.50;62.80
31677;DHT22;18385;51.572;6.578;2023-04-24T00:22:17;14.50;62.90
31677;DHT22;18385;51.572;6.578;2023-04-24T00:24:43;14.50;62.90
31677;DHT22;18385;51.572;6.578;2023-04-24T00:27:08;14.60;62.80
31677;DHT22;18385;51.572;6.578;2023-04-24T00:29:34;14.50;62.70
31677;DHT22;18385;51.572;6.578;2023-04-24T00:32:00;14.50;62.70
31677;DHT22;18385;51.572;6.578;2023-04-24T00:34:25;14.50;62.80
31677;DHT22;18385;51.572;6.578;2023-04-24T00:36:51;14.50;62.80
31677;DHT22;18385;51.572;6.578;2023-04-24T00:39:21;14.50;62.80
31677;DHT22;18385;51.572;6.578;2023-04-24T00:41:47;14.40;62.70
31677;DHT22;18385;51.572;6.578;2023-04-24T00:44:14;14.40;62.80
31677;DHT22;18385;51.572;6.578;2023-04-24T00:46:40;14.40;62.90
31677;DHT22;18385;51.572;6.578;2023-04-24T00:49:06;14.40;62.90
31677;DHT22;18385;51.572;6.578;2023-04-24T00:51:32;14.30;62.70
31677;DHT22;18385;51.572;6.578;2023-04-24T00:53:59;14.30;62.70
31677;DHT22;18385;51.572;6.578;2023-04-24T00:56:26;14.30;62.80
31677;DHT22;18385;51.572;6.578;2023-04-24T00:58:51;14.30;62.80
31677;DHT22;18385;51.572;6.578;2023-04-24T01:01:20;14.30;62.80
31677;DHT22;18385;51.572;6.578;2023-04-24T01:03:48;14.30;62.80
31677;DHT22;18385;51.572;6.578;2023-04-24T01:06:14;14.20;62.70
31677;DHT22;18385;51.572;6.578;2023-04-24T01:08:41;14.20;62.70
31677;DHT22;18385;51.572;6.578;2023-04-24T01:11:07;14.20;62.70
31677;DHT22;18385;51.572;6.578;2023-04-24T01:13:33;14.10;62.60
31677;DHT22;18385;51.572;6.578;2023-04-24T01:15:59;14.10;62.60
31677;DHT22;18385;51.572;6.578;2023-04-24T01:18:26;14.10;62.70
31677;DHT22;18385;51.572;6.578;2023-04-24T01:20:54;14.00;62.70
31677;DHT22;18385;51.572;6.578;2023-04-24T01:23:23;14.00;62.70
31677;DHT22;18385;51.572;6.578;2023-04-24T01:25:50;14.00;62.80
31677;DHT22;18385;51.572;6.578;2023-04-24T01:28:18;14.00;62.80
31677;DHT22;18385;51.572;6.578;2023-04-24T01:30:44;14.00;62.80
31677;DHT22;18385;51.572;6.578;2023-04-24T01:33:10;14.00;62.80
31677;DHT22;18385;51.572;6.578;2023-04-24T01:35:36;13.90;62.70
31677;DHT22;18385;51.572;6.578;2023-04-24T01:38:03;13.90;62.70
31677;DHT22;18385;51.572;6.578;2023-04-24T01:40:29;13.90;62.80
31677;DHT22;18385;51.572;6.578;2023-04-24T01:42:58;13.90;62.80
31677;DHT22;18385;51.572;6.578;2023-04-24T01:45:23;13.90;62.80
31677;DHT22;18385;51.572;6.578;2023-04-24T01:47:50;13.90;62.70
31677;DHT22;18385;51.572;6.578;2023-04-24T01:50:16;13.90;62.70
31677;DHT22;18385;51.572;6.578;2023-04-24T01:52:42;13.90;62.80
31677;DHT22;18385;51.572;6.578;2023-04-24T01:55:09;13.90;62.80
31677;DHT22;18385;51.572;6.578;2023-04-24T01:57:35;13.90;62.80
31677;DHT22;18385;51.572;6.578;2023-04-24T02:00:02;13.90;62.80
31677;DHT22;18385;51.572;6.578;2023-04-24T02:02:39;13.90;62.80
31677;DHT22;18385;51.572;6.578;2023-04-24T02:05:07;13.90;62.80
31677;DHT22;18385;51.572;6.578;2023-04-24T02:07:35;13.80;62.60
31677;DHT22;18385;51.572;6.578;2023-04-24T02:10:01;13.80;62.70
31677;DHT22;18385;51.572;6.578;2023-04-24T02:12:27;13.80;62.80
31677;DHT22;18385;51.572;6.578;2023-04-24T02:14:52;13.80;62.70
31677;DHT22;18385;51.572;6.578;2023-04-24T02:17:18;13.80;62.70
31677;DHT22;18385;51.572;6.578;2023-04-24T02:19:45;13.80;62.70
31677;DHT22;18385;51.572;6.578;2023-04-24T02:22:11;13.80;62.70
31677;DHT22;18385;51.572;6.578;2023-04-24T02:24:37;13.70;62.70
31677;DHT22;18385;51.572;6.578;2023-04-24T02:27:03;13.70;62.80
31677;DHT22;18385;51.572;6.578;2023-04-24T02:29:29;13.60;62.90
31677;DHT22;18385;51.572;6.578;2023-04-24T02:31:54;13.60;63.10
31677;DHT22;18385;51.572;6.578;2023-04-24T02:34:20;13.60;63.20
31677;DHT22;18385;51.572;6.578;2023-04-24T02:36:46;13.60;63.20
31677;DHT22;18385;51.572;6.578;2023-04-24T02:39:14;13.60;63.30
31677;DHT22;18385;51.572;6.578;2023-04-24T02:41:42;13.60;63.30
31677;DHT22;18385;51.572;6.578;2023-04-24T02:44:08;13.60;63.30
31677;DHT22;18385;51.572;6.578;2023-04-24T02:46:34;13.60;63.30
31677;DHT22;18385;51.572;6.578;2023-04-24T02:49:00;13.70;63.30
31677;DHT22;18385;51.572;6.578;2023-04-24T02:51:25;13.70;63.30
31677;DHT22;18385;51.572;6.578;2023-04-24T02:53:52;13.70;63.30
31677;DHT22;18385;51.572;6.578;2023-04-24T02:56:18;13.70;63.30
31677;DHT22;18385;51.572;6.578;2023-04-24T02:58:43;13.70;63.30
31677;DHT22;18385;51.572;6.578;2023-04-24T03:01:09;13.70;63.30
31677;DHT22;18385;51.572;6.578;2023-04-24T03:03:36;13.70;63.30
31677;DHT22;18385;51.572;6.578;2023-04-24T03:06:02;13.70;63.40
31677;DHT22;18385;51.572;6.578;2023-04-24T03:08:27;13.70;63.30
31677;DHT22;18385;51.572;6.578;2023-04-24T03:10:53;13.70;63.40
31677;DHT22;18385;51.572;6.578;2023-04-24T03:13:19;13.70;63.40
31677;DHT22;18385;51.572;6.578;2023-04-24T03:15:44;13.70;63.30
31677;DHT22;18385;51.572;6.578;2023-04-24T03:18:11;13.70;63.30
31677;DHT22;18385;51.572;6.578;2023-04-24T03:20:37;13.70;63.30
31677;DHT22;18385;51.572;6.578;2023-04-24T03:23:03;13.70;63.30
31677;DHT22;18385;51.572;6.578;2023-04-24T03:25:29;13.70;63.40
31677;DHT22;18385;51.572;6.578;2023-04-24T03:27:55;13.70;63.40
31677;DHT22;18385;51.572;6.578;2023-04-24T03:30:32;13.70;63.50
31677;DHT22;18385;51.572;6.578;2023-04-24T03:33:00;13.70;63.50
31677;DHT22;18385;51.572;6.578;2023-04-24T03:35:29;13.70;63.50
31677;DHT22;18385;51.572;6.578;2023-04-24T03:37:59;13.70;63.50
31677;DHT22;18385;51.572;6.578;2023-04-24T03:40:43;13.60;63.40
31677;DHT22;18385;51.572;6.578;2023-04-24T03:43:38;13.60;63.50
31677;DHT22;18385;51.572;6.578;2023-04-24T03:46:05;13.60;63.50
31677;DHT22;18385;51.572;6.578;2023-04-24T03:48:37;13.60;63.70
31677;DHT22;18385;51.572;6.578;2023-04-24T03:51:03;13.60;63.70
31677;DHT22;18385;51.572;6.578;2023-04-24T03:53:30;13.60;63.60
31677;DHT22;18385;51.572;6.578;2023-04-24T03:55:56;13.60;63.60
31677;DHT22;18385;51.572;6.578;2023-04-24T03:58:22;13.60;63.60
31677;DHT22;18385;51.572;6.578;2023-04-24T04:00:49;13.60;63.50
31677;DHT22;18385;51.572;6.578;2023-04-24T04:03:37;13.60;63.50
31677;DHT22;18385;51.572;6.578;2023-04-24T04:06:04;13.60;63.60
31677;DHT22;18385;51.572;6.578;2023-04-24T04:08:29;13.60;63.50
31677;DHT22;18385;51.572;6.578;2023-04-24T04:10:55;13.50;63.60
31677;DHT22;18385;51.572;6.578;2023-04-24T04:13:22;13.50;63.50
31677;DHT22;18385;51.572;6.578;2023-04-24T04:15:48;13.60;63.60
31677;DHT22;18385;51.572;6.578;2023-04-24T04:18:14;13.60;63.60
31677;DHT22;18385;51.572;6.578;2023-04-24T04:20:40;13.60;63.60
31677;DHT22;18385;51.572;6.578;2023-04-24T04:23:06;13.60;63.50
31677;DHT22;18385;51.572;6.578;2023-04-24T04:25:48;13.60;63.50
31677;DHT22;18385;51.572;6.578;2023-04-24T04:28:17;13.60;63.50
31677;DHT22;18385;51.572;6.578;2023-04-24T04:30:46;13.60;63.50
31677;DHT22;18385;51.572;6.578;2023-04-24T04:33:13;13.60;63.50
31677;DHT22;18385;51.572;6.578;2023-04-24T04:35:40;13.60;63.40
31677;DHT22;18385;51.572;6.578;2023-04-24T04:38:06;13.60;63.40
31677;DHT22;18385;51.572;6.578;2023-04-24T04:40:53;13.60;63.40
31677;DHT22;18385;51.572;6.578;2023-04-24T04:43:25;13.60;63.50
31677;DHT22;18385;51.572;6.578;2023-04-24T04:45:53;13.60;63.40
31677;DHT22;18385;51.572;6.578;2023-04-24T04:48:32;13.60;63.40
31677;DHT22;18385;51.572;6.578;2023-04-24T04:50:59;13.60;63.40
31677;DHT22;18385;51.572;6.578;2023-04-24T04:53:26;13.60;63.50
31677;DHT22;18385;51.572;6.578;2023-04-24T04:55:52;13.60;63.40
31677;DHT22;18385;51.572;6.578;2023-04-24T04:58:19;13.60;63.30
31677;DHT22;18385;51.572;6.578;2023-04-24T05:00:48;13.60;63.30
31677;DHT22;18385;51.572;6.578;2023-04-24T05:03:24;13.60;63.30
31677;DHT22;18385;51.572;6.578;2023-04-24T05:05:57;13.60;63.30
31677;DHT22;18385;51.572;6.578;2023-04-24T05:08:23;13.50;63.30
31677;DHT22;18385;51.572;6.578;2023-04-24T05:10:49;13.40;63.30
31677;DHT22;18385;51.572;6.578;2023-04-24T05:13:15;13.50;64.20
31677;DHT22;18385;51.572;6.578;2023-04-24T05:15:41;13.40;63.40
31677;DHT22;18385;51.572;6.578;2023-04-24T05:18:06;13.40;63.50
31677;DHT22;18385;51.572;6.578;2023-04-24T05:20:33;13.30;63.50
31677;DHT22;18385;51.572;6.578;2023-04-24T05:22:58;13.30;63.60
31677;DHT22;18385;51.572;6.578;2023-04-24T05:25:25;13.40;63.70
31677;DHT22;18385;51.572;6.578;2023-04-24T05:27:55;13.30;63.70
31677;DHT22;18385;51.572;6.578;2023-04-24T05:30:22;13.40;63.60
31677;DHT22;18385;51.572;6.578;2023-04-24T05:32:49;13.40;63.60
31677;DHT22;18385;51.572;6.578;2023-04-24T05:35:15;13.40;63.60
31677;DHT22;18385;51.572;6.578;2023-04-24T05:37:40;13.40;63.60
31677;DHT22;18385;51.572;6.578;2023-04-24T05:40:08;13.40;63.60
31677;DHT22;18385;51.572;6.578;2023-04-24T05:42:34;13.40;63.60
31677;DHT22;18385;51.572;6.578;2023-04-24T05:45:00;13.40;63.50
31677;DHT22;18385;51.572;6.578;2023-04-24T05:47:26;13.40;63.50
31677;DHT22;18385;51.572;6.578;2023-04-24T05:49:52;13.40;63.60
31677;DHT22;18385;51.572;6.578;2023-04-24T05:52:19;13.40;63.70
31677;DHT22;18385;51.572;6.578;2023-04-24T05:54:45;13.30;63.70
31677;DHT22;18385;51.572;6.578;2023-04-24T05:57:15;13.30;63.80
31677;DHT22;18385;51.572;6.578;2023-04-24T05:59:49;13.30;63.90
31677;DHT22;18385;51.572;6.578;2023-04-24T06:02:16;13.30;64.00
31677;DHT22;18385;51.572;6.578;2023-04-24T06:04:43;13.40;64.00
31677;DHT22;18385;51.572;6.578;2023-04-24T06:07:10;13.40;64.10
31677;DHT22;18385;51.572;6.578;2023-04-24T06:09:36;13.40;64.10
31677;DHT22;18385;51.572;6.578;2023-04-24T06:12:02;13.50;64.10
31677;DHT22;18385;51.572;6.578;2023-04-24T06:14:39;13.50;64.00
31677;DHT22;18385;51.572;6.578;2023-04-24T06:17:15;13.40;64.00
31677;DHT22;18385;51.572;6.578;2023-04-24T06:19:41;13.40;64.10
31677;DHT22;18385;51.572;6.578;2023-04-24T06:22:07;13.30;64.30
31677;DHT22;18385;51.572;6.578;2023-04-24T06:24:34;13.20;64.40
31677;DHT22;18385;51.572;6.578;2023-04-24T06:26:59;13.20;64.60
31677;DHT22;18385;51.572;6.578;2023-04-24T06:29:27;13.10;64.60
31677;DHT22;18385;51.572;6.578;2023-04-24T06:31:52;13.20;64.70
31677;DHT22;18385;51.572;6.578;2023-04-24T06:34:18;13.20;64.80
31677;DHT22;18385;51.572;6.578;2023-04-24T06:36:44;13.20;64.60
31677;DHT22;18385;51.572;6.578;2023-04-24T06:39:10;13.20;64.50
31677;DHT22;18385;51.572;6.578;2023-04-24T06:41:35;13.20;64.70
31677;DHT22;18385;51.572;6.578;2023-04-24T06:44:01;13.20;64.60
31677;DHT22;18385;51.572;6.578;2023-04-24T06:46:27;13.20;64.70
31677;DHT22;18385;51.572;6.578;2023-04-24T06:48:55;13.20;64.90
31677;DHT22;18385;51.572;6.578;2023-04-24T06:51:25;13.20;64.80
31677;DHT22;18385;51.572;6.578;2023-04-24T06:53:52;13.10;64.70
31677;DHT22;18385;51.572;6.578;2023-04-24T06:56:18;13.10;64.80
31677;DHT22;18385;51.572;6.578;2023-04-24T06:58:44;13.10;64.80
31677;DHT22;18385;51.572;6.578;2023-04-24T07:01:11;13.00;64.70
31677;DHT22;18385;51.572;6.578;2023-04-24T07:03:36;13.00;64.80
31677;DHT22;18385;51.572;6.578;2023-04-24T07:06:02;12.90;64.90
31677;DHT22;18385;51.572;6.578;2023-04-24T07:08:29;12.90;65.10
31677;DHT22;18385;51.572;6.578;2023-04-24T07:10:56;12.90;65.10
31677;DHT22;18385;51.572;6.578;2023-04-24T07:13:23;12.90;65.30
31677;DHT22;18385;51.572;6.578;2023-04-24T07:15:49;12.90;65.50
31677;DHT22;18385;51.572;6.578;2023-04-24T07:18:16;13.00;65.60
31677;DHT22;18385;51.572;6.578;2023-04-24T07:20:42;13.10;65.50
31677;DHT22;18385;51.572;6.578;2023-04-24T07:23:08;13.10;65.30
31677;DHT22;18385;51.572;6.578;2023-04-24T07:25:33;13.20;65.20
31677;DHT22;18385;51.572;6.578;2023-04-24T07:27:59;13.20;65.30
31677;DHT22;18385;51.572;6.578;2023-04-24T07:30:25;13.30;65.20
31677;DHT22;18385;51.572;6.578;2023-04-24T07:32:51;13.30;65.20
31677;DHT22;18385;51.572;6.578;2023-04-24T07:35:17;13.30;65.10
31677;DHT22;18385;51.572;6.578;2023-04-24T07:37:43;13.30;64.90
31677;DHT22;18385;51.572;6.578;2023-04-24T07:40:12;13.20;65.00
31677;DHT22;18385;51.572;6.578;2023-04-24T07:42:38;13.20;65.20
31677;DHT22;18385;51.572;6.578;2023-04-24T07:45:04;13.10;65.10
31677;DHT22;18385;51.572;6.578;2023-04-24T07:47:31;13.00;65.10
31677;DHT22;18385;51.572;6.578;2023-04-24T07:49:56;12.90;65.30
31677;DHT22;18385;51.572;6.578;2023-04-24T07:52:23;12.90;65.50
31677;DHT22;18385;51.572;6.578;2023-04-24T07:54:48;12.80;65.60
31677;DHT22;18385;51.572;6.578;2023-04-24T07:57:15;12.70;65.50
31677;DHT22;18385;51.572;6.578;2023-04-24T07:59:41;12.60;65.60
31677;DHT22;18385;51.572;6.578;2023-04-24T08:02:07;12.50;65.90
31677;DHT22;18385;51.572;6.578;2023-04-24T08:04:33;12.40;66.10
31677;DHT22;18385;51.572;6.578;2023-04-24T08:06:58;12.40;66.50
31677;DHT22;18385;51.572;6.578;2023-04-24T08:09:24;12.50;66.50
31677;DHT22;18385;51.572;6.578;2023-04-24T08:11:50;12.50;66.60
31677;DHT22;18385;51.572;6.578;2023-04-24T08:14:16;12.50;66.40
31677;DHT22;18385;51.572;6.578;2023-04-24T08:16:41;12.30;66.60
31677;DHT22;18385;51.572;6.578;2023-04-24T08:19:07;12.30;67.00
31677;DHT22;18385;51.572;6.578;2023-04-24T08:21:33;12.40;67.20
31677;DHT22;18385;51.572;6.578;2023-04-24T08:23:58;12.40;67.30
31677;DHT22;18385;51.572;6.578;2023-04-24T08:26:24;12.40;67.50
31677;DHT22;18385;51.572;6.578;2023-04-24T08:28:50;12.50;67.50
31677;DHT22;18385;51.572;6.578;2023-04-24T08:31:16;12.50;67.60
31677;DHT22;18385;51.572;6.578;2023-04-24T08:33:41;12.60;67.80
31677;DHT22;18385;51.572;6.578;2023-04-24T08:36:10;12.70;67.70
31677;DHT22;18385;51.572;6.578;2023-04-24T08:38:36;12.70;67.80
31677;DHT22;18385;51.572;6.578;2023-04-24T08:41:02;12.70;67.70
31677;DHT22;18385;51.572;6.578;2023-04-24T08:43:27;12.80;67.60
31677;DHT22;18385;51.572;6.578;2023-04-24T08:45:56;12.80;67.70
31677;DHT22;18385;51.572;6.578;2023-04-24T08:48:22;12.70;67.50
31677;DHT22;18385;51.572;6.578;2023-04-24T08:50:50;12.50;67.70
31677;DHT22;18385;51.572;6.578;2023-04-24T08:53:18;12.50;68.10
31677;DHT22;18385;51.572;6.578;2023-04-24T08:55:47;12.50;68.30
31677;DHT22;18385;51.572;6.578;2023-04-24T08:58:15;12.40;68.40
31677;DHT22;18385;51.572;6.578;2023-04-24T09:00:41;12.30;68.50
31677;DHT22;18385;51.572;6.578;2023-04-24T09:03:16;12.30;68.90
31677;DHT22;18385;51.572;6.578;2023-04-24T09:05:46;12.20;68.90
31677;DHT22;18385;51.572;6.578;2023-04-24T09:08:19;12.20;69.10
31677;DHT22;18385;51.572;6.578;2023-04-24T09:10:48;12.10;69.20
31677;DHT22;18385;51.572;6.578;2023-04-24T09:13:14;12.00;69.30
31677;DHT22;18385;51.572;6.578;2023-04-24T09:15:41;11.90;69.30
31677;DHT22;18385;51.572;6.578;2023-04-24T09:18:06;11.90;69.50
31677;DHT22;18385;51.572;6.578;2023-04-24T09:20:32;11.80;69.60
31677;DHT22;18385;51.572;6.578;2023-04-24T09:22:58;11.80;69.60
31677;DHT22;18385;51.572;6.578;2023-04-24T09:25:32;11.70;69.80
31677;DHT22;18385;51.572;6.578;2023-04-24T09:28:03;11.70;70.00
31677;DHT22;18385;51.572;6.578;2023-04-24T09:30:29;11.70;69.90
31677;DHT22;18385;51.572;6.578;2023-04-24T09:33:14;11.70;69.80
31677;DHT22;18385;51.572;6.578;2023-04-24T09:35:42;11.70;69.80
31677;DHT22;18385;51.572;6.578;2023-04-24T09:38:10;11.60;69.90
31677;DHT22;18385;51.572;6.578;2023-04-24T09:40:36;11.60;70.00
31677;DHT22;18385;51.572;6.578;2023-04-24T09:43:02;11.70;70.10
31677;DHT22;18385;51.572;6.578;2023-04-24T09:45:38;11.70;70.00
31677;DHT22;18385;51.572;6.578;2023-04-24T09:48:05;11.70;69.90
31677;DHT22;18385;51.572;6.578;2023-04-24T09:50:32;11.70;70.00
31677;DHT22;18385;51.572;6.578;2023-04-24T09:53:05;11.80;70.00
31677;DHT22;18385;51.572;6.578;2023-04-24T09:55:31;11.80;69.80
31677;DHT22;18385;51.572;6.578;2023-04-24T09:57:59;11.80;69.80
31677;DHT22;18385;51.572;6.578;2023-04-24T10:00:29;11.90;69.80
31677;DHT22;18385;51.572;6.578;2023-04-24T10:03:04;11.90;69.70
31677;DHT22;18385;51.572;6.578;2023-04-24T10:05:33;11.90;69.80
31677;DHT22;18385;51.572;6.578;2023-04-24T10:08:05;11.80;70.00
31677;DHT22;18385;51.572;6.578;2023-04-24T10:10:33;11.80;70.00
31677;DHT22;18385;51.572;6.578;2023-04-24T10:12:59;11.80;70.10
31677;DHT22;18385;51.572;6.578;2023-04-24T10:15:26;11.90;70.10
31677;DHT22;18385;51.572;6.578;2023-04-24T10:17:52;11.90;70.10
31677;DHT22;18385;51.572;6.578;2023-04-24T10:20:28;11.90;70.20
31677;DHT22;18385;51.572;6.578;2023-04-24T10:22:58;12.10;70.10
31677;DHT22;18385;51.572;6.578;2023-04-24T10:25:29;12.30;69.80
31677;DHT22;18385;51.572;6.578;2023-04-24T10:27:56;12.40;69.40
31677;DHT22;18385;51.572;6.578;2023-04-24T10:30:30;12.50;69.10
31677;DHT22;18385;51.572;6.578;2023-04-24T10:32:56;12.60;68.90
31677;DHT22;18385;51.572;6.578;2023-04-24T10:35:22;12.60;68.80
31677;DHT22;18385;51.572;6.578;2023-04-24T10:37:54;12.70;68.70
31677;DHT22;18385;51.572;6.578;2023-04-24T10:40:32;12.90;68.70
31677;DHT22;18385;51.572;6.578;2023-04-24T10:42:58;13.00;68.50
31677;DHT22;18385;51.572;6.578;2023-04-24T10:45:25;13.00;68.10
31677;DHT22;18385;51.572;6.578;2023-04-24T10:47:59;13.20;68.40
31677;DHT22;18385;51.572;6.578;2023-04-24T10:50:41;13.50;68.40
31677;DHT22;18385;51.572;6.578;2023-04-24T10:53:13;13.80;68.10
31677;DHT22;18385;51.572;6.578;2023-04-24T10:58:10;14.60;67.40
31677;DHT22;18385;51.572;6.578;2023-04-24T11:00:38;14.80;67.00
31677;DHT22;18385;51.572;6.578;2023-04-24T11:03:27;14.80;65.20
31677;DHT22;18385;51.572;6.578;2023-04-24T11:06:07;14.70;65.90
31677;DHT22;18385;51.572;6.578;2023-04-24T11:08:44;14.80;65.70
31677;DHT22;18385;51.572;6.578;2023-04-24T11:11:15;14.90;65.80
31677;DHT22;18385;51.572;6.578;2023-04-24T11:21:54;14.10;65.00
31677;DHT22;18385;51.572;6.578;2023-04-24T11:24:26;13.90;65.10
31677;DHT22;18385;51.572;6.578;2023-04-24T11:27:05;13.70;65.40
31677;DHT22;18385;51.572;6.578;2023-04-24T11:29:49;13.70;65.90
31677;DHT22;18385;51.572;6.578;2023-04-24T11:34:49;14.00;65.60
31677;DHT22;18385;51.572;6.578;2023-04-24T11:37:15;14.10;65.60
31677;DHT22;18385;51.572;6.578;2023-04-24T11:39:41;14.30;65.60
31677;DHT22;18385;51.572;6.578;2023-04-24T11:42:08;14.60;65.30
31677;DHT22;18385;51.572;6.578;2023-04-24T11:44:35;14.80;64.50
31677;DHT22;18385;51.572;6.578;2023-04-24T11:47:04;14.70;63.90
31677;DHT22;18385;51.572;6.578;2023-04-24T11:49:30;14.50;64.50
31677;DHT22;18385;51.572;6.578;2023-04-24T11:51:56;14.30;64.30
31677;DHT22;18385;51.572;6.578;2023-04-24T11:54:21;14.10;64.60
31677;DHT22;18385;51.572;6.578;2023-04-24T11:56:47;14.00;64.50
31677;DHT22;18385;51.572;6.578;2023-04-24T11:59:13;14.00;65.00
31677;DHT22;18385;51.572;6.578;2023-04-24T12:01:46;13.90;64.60
31677;DHT22;18385;51.572;6.578;2023-04-24T12:04:12;13.80;64.60
31677;DHT22;18385;51.572;6.578;2023-04-24T12:06:38;13.60;64.60
31677;DHT22;18385;51.572;6.578;2023-04-24T12:09:04;13.50;64.70
31677;DHT22;18385;51.572;6.578;2023-04-24T12:11:30;13.60;65.20
31677;DHT22;18385;51.572;6.578;2023-04-24T12:13:55;13.90;65.30
31677;DHT22;18385;51.572;6.578;2023-04-24T12:16:21;14.40;65.30
31677;DHT22;18385;51.572;6.578;2023-04-24T12:18:47;14.70;64.00
31677;DHT22;18385;51.572;6.578;2023-04-24T12:21:20;14.80;63.30
31677;DHT22;18385;51.572;6.578;2023-04-24T12:23:46;14.90;62.90
31677;DHT22;18385;51.572;6.578;2023-04-24T12:26:19;14.90;62.70
31677;DHT22;18385;51.572;6.578;2023-04-24T12:28:48;14.70;62.40
31677;DHT22;18385;51.572;6.578;2023-04-24T12:31:17;14.70;62.70
31677;DHT22;18385;51.572;6.578;2023-04-24T12:33:43;14.70;63.00
31677;DHT22;18385;51.572;6.578;2023-04-24T12:36:12;14.80;62.60
31677;DHT22;18385;51.572;6.578;2023-04-24T12:38:38;14.70;62.40
31677;DHT22;18385;51.572;6.578;2023-04-24T12:41:12;14.60;62.10
31677;DHT22;18385;51.572;6.578;2023-04-24T12:43:38;14.50;63.00
31677;DHT22;18385;51.572;6.578;2023-04-24T12:46:04;14.50;62.40
31677;DHT22;18385;51.572;6.578;2023-04-24T12:48:30;14.50;61.80
31677;DHT22;18385;51.572;6.578;2023-04-24T12:50:58;14.40;61.70
31677;DHT22;18385;51.572;6.578;2023-04-24T12:53:27;14.30;61.80
31677;DHT22;18385;51.572;6.578;2023-04-24T12:55:53;14.20;61.80
31677;DHT22;18385;51.572;6.578;2023-04-24T12:58:20;14.10;61.90
31677;DHT22;18385;51.572;6.578;2023-04-24T13:00:46;14.10;61.80
31677;DHT22;18385;51.572;6.578;2023-04-24T13:03:14;14.00;61.60
31677;DHT22;18385;51.572;6.578;2023-04-24T13:05:41;13.90;61.70
31677;DHT22;18385;51.572;6.578;2023-04-24T13:08:07;13.90;62.10
31677;DHT22;18385;51.572;6.578;2023-04-24T13:10:33;14.00;61.90
31677;DHT22;18385;51.572;6.578;2023-04-24T13:12:59;14.00;61.70
31677;DHT22;18385;51.572;6.578;2023-04-24T13:15:25;14.10;61.80
31677;DHT22;18385;51.572;6.578;2023-04-24T13:17:51;14.20;61.90
31677;DHT22;18385;51.572;6.578;2023-04-24T13:20:17;14.30;61.80
31677;DHT22;18385;51.572;6.578;2023-04-24T13:22:43;14.60;61.70
31677;DHT22;18385;51.572;6.578;2023-04-24T13:25:08;14.90;61.60
31677;DHT22;18385;51.572;6.578;2023-04-24T13:27:37;15.30;61.10
31677;DHT22;18385;51.572;6.578;2023-04-24T13:30:03;15.70;60.70
31677;DHT22;18385;51.572;6.578;2023-04-24T13:32:29;16.00;59.80
31677;DHT22;18385;51.572;6.578;2023-04-24T13:34:54;16.30;59.40
31677;DHT22;18385;51.572;6.578;2023-04-24T13:37:20;16.50;59.00
31677;DHT22;18385;51.572;6.578;2023-04-24T13:39:47;16.70;58.50
31677;DHT22;18385;51.572;6.578;2023-04-24T13:42:13;16.40;57.50
31677;DHT22;18385;51.572;6.578;2023-04-24T13:44:39;16.10;57.60
31677;DHT22;18385;51.572;6.578;2023-04-24T13:47:05;15.80;58.00
31677;DHT22;18385;51.572;6.578;2023-04-24T13:49:31;15.50;58.50
31677;DHT22;18385;51.572;6.578;2023-04-24T13:51:56;15.40;58.60
31677;DHT22;18385;51.572;6.578;2023-04-24T13:54:22;15.20;58.60
31677;DHT22;18385;51.572;6.578;2023-04-24T13:56:51;14.90;58.60
31677;DHT22;18385;51.572;6.578;2023-04-24T13:59:17;14.50;58.40
31677;DHT22;18385;51.572;6.578;2023-04-24T14:01:44;14.30;58.70
31677;DHT22;18385;51.572;6.578;2023-04-24T14:04:10;14.10;59.10
31677;DHT22;18385;51.572;6.578;2023-04-24T14:06:36;14.00;59.20
31677;DHT22;18385;51.572;6.578;2023-04-24T14:09:02;13.50;59.00
31677;DHT22;18385;51.572;6.578;2023-04-24T14:11:28;13.00;59.70
31677;DHT22;18385;51.572;6.578;2023-04-24T14:13:54;12.70;60.70
31677;DHT22;18385;51.572;6.578;2023-04-24T14:16:21;12.60;61.60
31677;DHT22;18385;51.572;6.578;2023-04-24T14:18:47;12.70;62.30
31677;DHT22;18385;51.572;6.578;2023-04-24T14:21:13;12.90;62.30
31677;DHT22;18385;51.572;6.578;2023-04-24T14:23:38;13.00;62.20
31677;DHT22;18385;51.572;6.578;2023-04-24T14:26:04;13.30;62.10
31677;DHT22;18385;51.572;6.578;2023-04-24T14:28:30;13.50;61.90
31677;DHT22;18385;51.572;6.578;2023-04-24T14:30:55;14.10;62.00
31677;DHT22;18385;51.572;6.578;2023-04-24T14:33:21;14.30;61.10
31677;DHT22;18385;51.572;6.578;2023-04-24T14:35:47;14.40;60.40
31677;DHT22;18385;51.572;6.578;2023-04-24T14:38:13;14.70;60.60
31677;DHT22;18385;51.572;6.578;2023-04-24T14:40:39;15.10;60.50
31677;DHT22;18385;51.572;6.578;2023-04-24T14:43:05;15.40;59.60
31677;DHT22;18385;51.572;6.578;2023-04-24T14:45:30;16.00;60.10
31677;DHT22;18385;51.572;6.578;2023-04-24T14:47:57;16.60;58.90
31677;DHT22;18385;51.572;6.578;2023-04-24T14:50:23;17.30;58.80
31677;DHT22;18385;51.572;6.578;2023-04-24T14:52:49;17.50;56.60
31677;DHT22;18385;51.572;6.578;2023-04-24T14:55:15;16.90;55.90
31677;DHT22;18385;51.572;6.578;2023-04-24T14:57:42;16.70;56.60
31677;DHT22;18385;51.572;6.578;2023-04-24T15:00:08;16.50;56.90
31677;DHT22;18385;51.572;6.578;2023-04-24T15:02:35;16.30;56.40
31677;DHT22;18385;51.572;6.578;2023-04-24T15:05:05;15.90;56.50
31677;DHT22;18385;51.572;6.578;2023-04-24T15:07:31;15.80;57.20
31677;DHT22;18385;51.572;6.578;2023-04-24T15:09:58;15.60;57.10
31677;DHT22;18385;51.572;6.578;2023-04-24T15:12:24;15.70;57.40
31677;DHT22;18385;51.572;6.578;2023-04-24T15:14:50;16.80;58.30
31677;DHT22;18385;51.572;6.578;2023-04-24T15:17:16;17.70;55.70
31677;DHT22;18385;51.572;6.578;2023-04-24T15:19:41;17.60;53.70
31677;DHT22;18385;51.572;6.578;2023-04-24T15:22:07;17.10;54.30
31677;DHT22;18385;51.572;6.578;2023-04-24T15:24:33;17.20;54.10
31677;DHT22;18385;51.572;6.578;2023-04-24T15:26:59;16.90;54.50
31677;DHT22;18385;51.572;6.578;2023-04-24T15:29:27;16.90;55.00
31677;DHT22;18385;51.572;6.578;2023-04-24T15:31:52;16.60;54.40
31677;DHT22;18385;51.572;6.578;2023-04-24T15:34:18;16.30;54.70
31677;DHT22;18385;51.572;6.578;2023-04-24T15:36:44;16.00;55.00
31677;DHT22;18385;51.572;6.578;2023-04-24T15:39:09;15.90;55.60
31677;DHT22;18385;51.572;6.578;2023-04-24T15:41:35;16.10;56.10
31677;DHT22;18385;51.572;6.578;2023-04-24T15:44:01;16.70;56.40